createdAt,value
2023-10-23T00:01:37.030Z,6.47
2023-10-23T00:04:04.586Z,6.00
2023-10-23T00:06:32.068Z,5.43
2023-10-23T00:08:59.573Z,5.87
2023-10-23T00:11:28.144Z,5.07
2023-10-23T00:13:55.411Z,4.93
2023-10-23T00:16:22.806Z,6.20
2023-10-23T00:18:50.477Z,5.68
2023-10-23T00:21:18.084Z,5.40
2023-10-23T00:23:45.384Z,6.28
2023-10-23T00:26:12.692Z,5.82
2023-10-23T00:28:45.402Z,6.00
2023-10-23T00:31:12.753Z,5.63
2023-10-23T00:33:39.765Z,5.40
2023-10-23T00:36:06.893Z,5.72
2023-10-23T00:38:33.819Z,6.00
2023-10-23T00:41:01.086Z,6.35
2023-10-23T00:43:28.751Z,5.30
2023-10-23T00:46:00.650Z,5.30
2023-10-23T00:48:28.535Z,5.82
2023-10-23T00:51:01.444Z,6.57
2023-10-23T00:53:32.503Z,5.78
2023-10-23T00:56:00.519Z,5.57
2023-10-23T00:58:27.872Z,5.63
2023-10-23T01:00:59.473Z,5.75
2023-10-23T01:03:27.454Z,5.68
2023-10-23T01:05:54.858Z,5.72
2023-10-23T01:08:22.143Z,5.50
2023-10-23T01:10:49.223Z,5.50
2023-10-23T01:13:17.167Z,5.03
2023-10-23T01:15:44.475Z,5.78
2023-10-23T01:18:11.740Z,5.00
2023-10-23T01:20:38.982Z,6.07
2023-10-23T01:23:05.960Z,6.00
2023-10-23T01:25:33.679Z,6.10
2023-10-23T01:28:00.685Z,5.43
2023-10-23T01:30:28.699Z,6.43
2023-10-23T01:32:56.002Z,6.15
2023-10-23T01:35:23.319Z,6.23
2023-10-23T01:37:52.664Z,6.35
2023-10-23T01:40:19.686Z,5.07
2023-10-23T01:42:50.261Z,4.95
2023-10-23T01:45:20.022Z,5.78
2023-10-23T01:47:47.570Z,5.60
2023-10-23T01:50:14.529Z,7.07
2023-10-23T01:52:42.959Z,6.22
2023-10-23T01:55:10.339Z,6.65
2023-10-23T01:57:37.564Z,6.53
2023-10-23T02:00:06.072Z,6.20
2023-10-23T02:02:42.774Z,6.60
2023-10-23T02:05:09.889Z,6.25
2023-10-23T02:07:36.800Z,6.30
2023-10-23T02:10:04.218Z,5.57
2023-10-23T02:12:31.131Z,6.20
2023-10-23T02:14:58.745Z,6.20
2023-10-23T02:17:26.200Z,6.78
2023-10-23T02:19:53.484Z,6.00
2023-10-23T02:22:20.781Z,5.20
2023-10-23T02:24:48.089Z,6.37
2023-10-23T02:27:15.087Z,6.68
2023-10-23T02:29:42.358Z,6.63
2023-10-23T02:32:10.058Z,6.63
2023-10-23T02:34:38.144Z,6.93
2023-10-23T02:37:08.437Z,6.77
2023-10-23T02:39:35.733Z,6.65
2023-10-23T02:42:02.785Z,7.03
2023-10-23T02:44:30.112Z,7.13
2023-10-23T02:46:57.133Z,6.50
2023-10-23T02:49:24.593Z,7.30
2023-10-23T02:51:52.114Z,6.85
2023-10-23T02:54:19.155Z,6.50
2023-10-23T02:56:46.839Z,6.05
2023-10-23T02:59:14.246Z,5.38
2023-10-23T03:01:41.525Z,6.80
2023-10-23T03:04:08.889Z,6.38
2023-10-23T03:06:35.820Z,6.50
2023-10-23T03:09:04.351Z,6.63
2023-10-23T03:11:32.252Z,6.50
2023-10-23T03:14:00.254Z,7.17
2023-10-23T03:16:27.754Z,6.10
2023-10-23T03:18:55.712Z,6.95
2023-10-23T03:21:23.440Z,7.25
2023-10-23T03:23:51.125Z,7.38
2023-10-23T03:26:18.431Z,8.20
2023-10-23T03:28:45.771Z,6.68
2023-10-23T03:31:12.631Z,7.43
2023-10-23T03:33:41.389Z,7.32
2023-10-23T03:36:08.605Z,6.80
2023-10-23T03:38:35.574Z,7.57
2023-10-23T03:41:03.255Z,7.68
2023-10-23T03:43:30.614Z,7.13
2023-10-23T03:45:58.189Z,7.40
2023-10-23T03:48:25.732Z,7.57
2023-10-23T03:50:53.048Z,7.63
2023-10-23T03:53:20.406Z,8.13
2023-10-23T03:55:47.673Z,8.40
2023-10-23T03:58:14.947Z,8.05
2023-10-23T04:00:41.897Z,7.97
2023-10-23T04:03:08.859Z,7.70
2023-10-23T04:05:41.845Z,8.05
2023-10-23T04:08:09.320Z,8.15
2023-10-23T04:10:36.686Z,7.82
2023-10-23T04:13:03.996Z,7.88
2023-10-23T04:15:31.327Z,7.63
2023-10-23T04:17:58.264Z,7.80
2023-10-23T04:20:25.516Z,8.50
2023-10-23T04:22:52.925Z,6.40
2023-10-23T04:25:20.780Z,10.05
2023-10-23T04:27:48.100Z,7.50
2023-10-23T04:30:17.555Z,6.22
2023-10-23T04:32:44.912Z,6.72
2023-10-23T04:35:12.175Z,10.18
2023-10-23T04:37:39.417Z,10.25
2023-10-23T04:40:07.370Z,8.80
2023-10-23T04:42:34.746Z,11.40
2023-10-23T04:45:01.651Z,10.48
2023-10-23T04:47:28.560Z,14.48
2023-10-23T04:49:55.382Z,11.35
2023-10-23T04:52:24.289Z,14.47
2023-10-23T04:54:51.823Z,15.38
2023-10-23T04:57:19.169Z,14.35
2023-10-23T04:59:46.449Z,19.17
2023-10-23T05:02:13.702Z,17.33
2023-10-23T05:04:41.069Z,20.10
2023-10-23T05:07:08.522Z,19.08
2023-10-23T05:09:35.449Z,16.30
2023-10-23T05:12:02.746Z,17.33
2023-10-23T05:14:30.068Z,18.83
2023-10-23T05:16:57.009Z,16.27
2023-10-23T05:19:24.344Z,15.55
2023-10-23T05:21:51.735Z,16.73
2023-10-23T05:24:19.135Z,18.17
2023-10-23T05:26:46.368Z,16.15
2023-10-23T05:29:14.137Z,18.60
2023-10-23T05:31:41.075Z,19.52
2023-10-23T05:34:08.507Z,18.58
2023-10-23T05:36:35.821Z,18.42
2023-10-23T05:39:02.773Z,22.40
2023-10-23T05:41:29.596Z,20.10
2023-10-23T05:43:57.042Z,14.77
2023-10-23T05:46:24.394Z,16.60
2023-10-23T05:48:51.434Z,19.73
2023-10-23T05:51:18.727Z,19.50
2023-10-23T05:53:46.698Z,21.77
2023-10-23T05:56:13.976Z,18.20
2023-10-23T05:58:41.429Z,17.52
2023-10-23T06:01:09.501Z,20.50
2023-10-23T06:03:37.176Z,18.90
2023-10-23T06:06:04.632Z,22.23
2023-10-23T06:08:32.068Z,22.25
2023-10-23T06:11:00.432Z,20.38
2023-10-23T06:13:27.857Z,21.42
2023-10-23T06:15:56.382Z,18.85
2023-10-23T06:18:23.837Z,20.13
2023-10-23T06:20:59.771Z,23.48
2023-10-23T06:23:27.062Z,20.52
2023-10-23T06:25:57.403Z,27.48
2023-10-23T06:28:24.446Z,20.63
2023-10-23T06:30:51.764Z,25.33
2023-10-23T06:33:19.249Z,20.90
2023-10-23T06:35:46.175Z,20.73
2023-10-23T06:38:13.529Z,18.92
2023-10-23T06:40:40.841Z,21.30
2023-10-23T06:43:08.087Z,18.00
2023-10-23T06:46:00.452Z,23.52
2023-10-23T06:48:25.095Z,20.13
2023-10-23T06:50:52.557Z,17.05
2023-10-23T06:53:19.903Z,16.75
2023-10-23T06:55:54.380Z,17.70
2023-10-23T06:58:21.988Z,20.55
2023-10-23T07:00:49.857Z,18.55
2023-10-23T07:03:17.282Z,17.60
2023-10-23T07:05:44.886Z,19.10
2023-10-23T07:08:12.445Z,15.93
2023-10-23T07:10:39.626Z,22.15
2023-10-23T07:13:19.030Z,22.90
2023-10-23T07:15:50.578Z,18.17
2023-10-23T07:18:18.801Z,19.00
2023-10-23T07:21:03.048Z,20.07
2023-10-23T07:23:33.070Z,18.02
2023-10-23T07:26:16.090Z,20.25
2023-10-23T07:28:43.588Z,20.33
2023-10-23T07:31:11.949Z,16.85
2023-10-23T07:33:39.749Z,15.20
2023-10-23T07:36:09.149Z,19.20
2023-10-23T07:38:42.521Z,19.02
2023-10-23T07:41:10.336Z,19.55
2023-10-23T07:43:37.608Z,16.77
2023-10-23T07:46:18.465Z,17.90
2023-10-23T07:48:46.619Z,17.77
2023-10-23T07:51:14.136Z,18.05
2023-10-23T07:53:41.470Z,18.77
2023-10-23T07:56:08.790Z,18.75
2023-10-23T07:58:36.295Z,16.27
2023-10-23T08:01:11.971Z,17.00
2023-10-23T08:03:40.838Z,15.57
2023-10-23T08:06:10.224Z,15.05
2023-10-23T08:08:38.000Z,16.77
2023-10-23T08:11:05.594Z,16.17
2023-10-23T08:13:33.129Z,16.17
2023-10-23T08:16:01.392Z,15.32
2023-10-23T08:18:37.213Z,14.45
2023-10-23T08:21:10.797Z,18.02
2023-10-23T08:23:38.252Z,15.90
2023-10-23T08:26:05.861Z,15.82
2023-10-23T08:28:54.248Z,16.23
2023-10-23T08:31:34.288Z,15.88
2023-10-23T08:34:06.679Z,18.55
2023-10-23T08:36:34.691Z,17.10
2023-10-23T08:39:02.557Z,15.23
2023-10-23T08:41:30.031Z,17.73
2023-10-23T08:43:57.693Z,16.42
2023-10-23T08:46:33.261Z,15.63
2023-10-23T08:49:02.619Z,14.87
2023-10-23T08:51:33.221Z,16.92
2023-10-23T08:54:12.042Z,21.65
2023-10-23T08:56:42.143Z,16.45
2023-10-23T08:59:11.172Z,18.10
2023-10-23T09:01:39.379Z,16.47
2023-10-23T09:04:08.109Z,15.98
2023-10-23T09:06:38.986Z,16.67
2023-10-23T09:09:06.659Z,15.27
2023-10-23T09:11:45.618Z,17.35
2023-10-23T09:14:29.224Z,16.23
2023-10-23T09:16:57.611Z,15.50
2023-10-23T09:19:26.278Z,17.10
2023-10-23T09:21:59.967Z,15.80
2023-10-23T09:24:27.582Z,15.95
2023-10-23T09:26:54.909Z,20.30
2023-10-23T09:29:26.151Z,19.25
2023-10-23T09:31:55.167Z,13.52
2023-10-23T09:34:23.099Z,15.65
2023-10-23T09:36:51.740Z,13.07
2023-10-23T09:39:20.125Z,17.10
2023-10-23T09:41:47.719Z,17.30
2023-10-23T09:44:15.867Z,16.80
2023-10-23T09:46:43.769Z,16.33
2023-10-23T09:49:11.620Z,17.75
2023-10-23T09:51:40.904Z,16.07
2023-10-23T09:54:16.671Z,15.20
2023-10-23T09:57:06.727Z,16.42
2023-10-23T09:59:43.932Z,15.10
2023-10-23T10:02:11.582Z,15.48
2023-10-23T10:05:06.597Z,16.43
2023-10-23T10:07:38.147Z,16.60
2023-10-23T10:10:06.566Z,16.73
2023-10-23T10:12:38.842Z,16.70
2023-10-23T10:15:10.634Z,17.02
2023-10-23T10:17:44.092Z,16.37
2023-10-23T10:20:12.585Z,15.57
2023-10-23T10:22:44.209Z,15.93
2023-10-23T10:25:12.829Z,14.68
2023-10-23T10:27:40.586Z,15.45
2023-10-23T10:30:08.763Z,14.97
2023-10-23T10:34:25.270Z,16.50
2023-10-23T10:35:41.520Z,14.23
2023-10-23T10:38:15.746Z,16.40
2023-10-23T10:41:05.790Z,13.68
2023-10-23T10:43:40.630Z,13.67
2023-10-23T10:46:22.061Z,13.02
2023-10-23T10:48:51.262Z,15.32
2023-10-23T10:51:22.958Z,13.65
2023-10-23T10:54:07.435Z,13.90
2023-10-23T10:56:34.894Z,11.87
2023-10-23T10:59:06.210Z,11.48
2023-10-23T11:01:34.443Z,13.20
2023-10-23T11:04:01.854Z,12.80
2023-10-23T11:06:30.298Z,11.98
2023-10-23T11:08:59.773Z,11.93
2023-10-23T11:11:28.001Z,14.82
2023-10-23T11:13:55.899Z,10.18
2023-10-23T11:16:23.385Z,10.27
2023-10-23T11:18:50.402Z,14.57
2023-10-23T11:21:23.273Z,10.33
2023-10-23T11:23:51.038Z,10.52
2023-10-23T11:26:18.336Z,11.20
2023-10-23T11:28:45.592Z,9.02
2023-10-23T11:31:12.567Z,11.15
2023-10-23T11:33:39.958Z,9.17
2023-10-23T11:36:07.896Z,9.60
2023-10-23T11:38:38.052Z,10.40
2023-10-23T11:41:05.399Z,13.45
2023-10-23T11:43:32.788Z,8.43
2023-10-23T11:46:00.355Z,8.90
2023-10-23T11:48:27.383Z,7.45
2023-10-23T11:50:55.933Z,7.93
2023-10-23T11:53:23.566Z,7.85
2023-10-23T11:55:50.896Z,8.02
2023-10-23T11:58:27.922Z,8.77
2023-10-23T12:00:55.339Z,7.43
2023-10-23T12:03:22.641Z,8.10
2023-10-23T12:05:49.972Z,7.38
2023-10-23T12:08:17.247Z,7.82
2023-10-23T12:10:44.520Z,8.23
2023-10-23T12:13:11.823Z,7.97
2023-10-23T12:15:39.162Z,8.50
2023-10-23T12:18:06.995Z,7.80
2023-10-23T12:20:34.210Z,8.73
2023-10-23T12:23:01.217Z,8.87
2023-10-23T12:25:28.584Z,8.40
2023-10-23T12:27:55.614Z,8.60
2023-10-23T12:30:24.294Z,7.85
2023-10-23T12:33:17.314Z,8.07
2023-10-23T12:35:41.844Z,7.27
2023-10-23T12:38:08.977Z,8.43
2023-10-23T12:40:37.478Z,9.20
2023-10-23T12:43:05.587Z,7.93
2023-10-23T12:45:33.035Z,7.93
2023-10-23T12:48:00.653Z,7.40
2023-10-23T12:50:27.895Z,8.07
2023-10-23T12:52:55.182Z,7.97
2023-10-23T12:55:22.172Z,7.70
2023-10-23T12:57:49.567Z,7.10
2023-10-23T13:00:17.417Z,7.80
2023-10-23T13:02:44.614Z,10.32
2023-10-23T13:05:12.278Z,14.75
2023-10-23T13:07:39.450Z,7.30
2023-10-23T13:10:07.337Z,6.90
2023-10-23T13:12:35.947Z,7.30
2023-10-23T13:15:04.544Z,6.63
2023-10-23T13:17:32.055Z,7.07
2023-10-23T13:21:29.494Z,7.28
2023-10-23T13:22:50.835Z,7.50
2023-10-23T13:25:19.526Z,7.60
2023-10-23T13:27:47.320Z,7.45
2023-10-23T13:30:14.837Z,6.85
2023-10-23T13:32:41.872Z,7.13
2023-10-23T13:35:09.445Z,7.63
2023-10-23T13:37:36.764Z,7.93
2023-10-23T13:40:08.476Z,8.52
2023-10-23T13:42:36.294Z,8.48
2023-10-23T13:45:03.754Z,9.48
2023-10-23T13:47:31.137Z,8.30
2023-10-23T13:49:59.559Z,8.10
2023-10-23T13:52:26.982Z,8.00
2023-10-23T13:54:54.442Z,10.57
2023-10-23T13:57:21.812Z,8.63
2023-10-23T13:59:48.899Z,10.20
2023-10-23T14:02:15.907Z,8.93
2023-10-23T14:04:43.337Z,9.02
2023-10-23T14:07:13.456Z,8.93
2023-10-23T14:09:46.291Z,10.75
2023-10-23T14:12:16.240Z,9.02
2023-10-23T14:14:43.692Z,9.70
2023-10-23T14:17:10.874Z,9.05
2023-10-23T14:19:46.580Z,13.25
2023-10-23T14:22:16.995Z,15.77
2023-10-23T14:24:44.374Z,16.80
2023-10-23T14:27:11.392Z,8.70
2023-10-23T14:29:39.226Z,8.85
2023-10-23T14:32:07.115Z,8.27
2023-10-23T14:34:34.606Z,7.40
2023-10-23T14:37:02.071Z,7.22
2023-10-23T14:39:30.548Z,8.97
2023-10-23T14:41:57.920Z,7.10
2023-10-23T14:44:25.364Z,7.50
2023-10-23T14:46:52.951Z,6.63
2023-10-23T14:49:20.279Z,6.90
2023-10-23T14:51:47.665Z,7.27
2023-10-23T14:54:15.016Z,7.05
2023-10-23T14:56:41.939Z,8.05
2023-10-23T14:59:09.753Z,7.95
2023-10-23T15:01:36.890Z,7.82
2023-10-23T15:04:04.635Z,8.00
2023-10-23T15:06:32.225Z,7.90
2023-10-23T15:08:59.996Z,7.72
2023-10-23T15:11:27.374Z,8.40
2023-10-23T15:13:54.657Z,7.95
2023-10-23T15:16:22.000Z,8.83
2023-10-23T15:18:48.950Z,9.95
2023-10-23T15:21:16.274Z,11.98
2023-10-23T15:23:43.129Z,9.23
2023-10-23T15:26:10.479Z,9.55
2023-10-23T15:28:39.345Z,10.97
2023-10-23T15:31:07.212Z,10.32
2023-10-23T15:33:36.727Z,11.90
2023-10-23T15:36:06.585Z,11.43
2023-10-23T15:38:35.470Z,11.43
2023-10-23T15:41:08.098Z,12.73
2023-10-23T15:43:36.059Z,12.40
2023-10-23T15:46:03.534Z,12.85
2023-10-23T15:48:30.957Z,11.82
2023-10-23T15:50:58.924Z,14.32
2023-10-23T15:53:28.022Z,13.77
2023-10-23T15:55:55.900Z,13.38
2023-10-23T15:58:27.889Z,13.88
2023-10-23T16:00:56.673Z,13.82
2023-10-23T16:03:24.512Z,13.45
2023-10-23T16:05:53.568Z,13.33
2023-10-23T16:08:20.878Z,14.48
2023-10-23T16:10:49.964Z,15.02
2023-10-23T16:13:18.413Z,14.30
2023-10-23T16:15:46.638Z,15.18
2023-10-23T16:18:16.078Z,15.23
2023-10-23T16:20:44.550Z,15.55
2023-10-23T16:23:12.454Z,15.07
2023-10-23T16:25:42.829Z,15.38
2023-10-23T16:28:11.447Z,15.68
2023-10-23T16:30:40.324Z,15.70
2023-10-23T16:33:08.448Z,15.18
2023-10-23T16:35:36.219Z,16.20
2023-10-23T16:38:03.967Z,15.77
2023-10-23T16:40:34.347Z,14.32
2023-10-23T16:43:01.957Z,15.43
2023-10-23T16:45:29.934Z,19.17
2023-10-23T16:47:57.455Z,16.42
2023-10-23T16:50:25.745Z,14.85
2023-10-23T16:52:52.778Z,14.90
2023-10-23T16:55:19.890Z,15.27
2023-10-23T16:57:47.109Z,15.73
2023-10-23T17:00:16.781Z,14.43
2023-10-23T17:02:46.990Z,14.25
2023-10-23T17:05:14.557Z,15.45
2023-10-23T17:07:41.925Z,14.77
2023-10-23T17:10:09.602Z,14.27
2023-10-23T17:12:37.292Z,13.50
2023-10-23T17:15:04.749Z,12.80
2023-10-23T17:17:32.334Z,13.88
2023-10-23T17:19:59.344Z,13.83
2023-10-23T17:22:26.693Z,13.65
2023-10-23T17:24:53.903Z,13.52
2023-10-23T17:27:20.928Z,14.45
2023-10-23T17:29:48.299Z,12.82
2023-10-23T17:32:15.326Z,15.43
2023-10-23T17:34:42.341Z,13.38
2023-10-23T17:37:09.763Z,13.70
2023-10-23T17:39:37.098Z,14.15
2023-10-23T17:42:04.598Z,14.73
2023-10-23T17:44:31.831Z,13.40
2023-10-23T17:46:59.298Z,15.23
2023-10-23T17:49:26.807Z,14.70
2023-10-23T17:51:55.830Z,17.55
2023-10-23T17:54:23.296Z,13.63
2023-10-23T17:56:50.679Z,14.20
2023-10-23T17:59:18.080Z,16.67
2023-10-23T18:01:45.255Z,17.63
2023-10-23T18:04:12.855Z,14.43
2023-10-23T18:06:40.221Z,18.67
2023-10-23T18:09:07.937Z,15.30
2023-10-23T18:11:35.271Z,14.90
2023-10-23T18:14:02.725Z,14.48
2023-10-23T18:16:30.167Z,14.60
2023-10-23T18:18:57.607Z,13.73
2023-10-23T18:21:24.795Z,14.50
2023-10-23T18:23:52.446Z,14.35
2023-10-23T18:26:20.131Z,15.77
2023-10-23T18:28:47.884Z,13.48
2023-10-23T18:31:15.452Z,15.82
2023-10-23T18:33:42.657Z,15.57
2023-10-23T18:36:17.461Z,15.98
2023-10-23T18:38:46.284Z,14.27
2023-10-23T18:41:21.825Z,14.32
2023-10-23T18:43:49.600Z,15.75
2023-10-23T18:46:17.038Z,14.73
2023-10-23T18:48:45.351Z,14.13
2023-10-23T18:51:13.560Z,17.00
2023-10-23T18:53:41.749Z,15.32
2023-10-23T18:56:09.035Z,15.77
2023-10-23T18:58:36.572Z,15.33
2023-10-23T19:01:06.763Z,15.50
2023-10-23T19:03:34.241Z,15.07
2023-10-23T19:06:01.532Z,15.50
2023-10-23T19:08:30.518Z,15.45
2023-10-23T19:10:57.435Z,14.93
2023-10-23T19:13:24.755Z,16.80
2023-10-23T19:16:03.475Z,16.60
2023-10-23T19:18:31.642Z,14.25
2023-10-23T19:21:15.730Z,16.30
2023-10-23T19:23:43.522Z,15.53
2023-10-23T19:26:11.356Z,14.27
2023-10-23T19:28:38.910Z,15.15
2023-10-23T19:31:17.962Z,15.23
2023-10-23T19:33:46.194Z,15.35
2023-10-23T19:36:14.435Z,16.27
2023-10-23T19:38:44.676Z,15.35
2023-10-23T19:41:16.304Z,16.65
2023-10-23T19:43:50.659Z,14.95
2023-10-23T19:46:18.491Z,13.25
2023-10-23T19:48:47.515Z,14.77
2023-10-23T19:51:19.267Z,13.60
2023-10-23T19:53:52.900Z,14.80
2023-10-23T19:56:28.067Z,15.18
2023-10-23T19:59:00.199Z,15.57
2023-10-23T20:01:27.686Z,14.43
2023-10-23T20:03:55.177Z,13.35
2023-10-23T20:06:22.052Z,13.77
2023-10-23T20:08:49.020Z,13.32
2023-10-23T20:11:15.976Z,14.75
2023-10-23T20:13:43.463Z,14.60
2023-10-23T20:16:11.182Z,13.57
2023-10-23T20:18:40.008Z,13.57
2023-10-23T20:21:07.429Z,13.45
2023-10-23T20:23:34.738Z,14.13
2023-10-23T20:26:02.008Z,15.03
2023-10-23T20:28:29.911Z,13.77
2023-10-23T20:30:57.328Z,13.75
2023-10-23T20:33:24.678Z,13.45
2023-10-23T20:35:51.580Z,13.70
2023-10-23T20:38:18.920Z,12.60
2023-10-23T20:40:46.276Z,12.18
2023-10-23T20:43:13.726Z,12.23
2023-10-23T20:45:41.116Z,12.77
2023-10-23T20:48:08.541Z,12.20
2023-10-23T20:50:35.835Z,12.80
2023-10-23T20:53:03.415Z,11.20
2023-10-23T20:55:30.777Z,12.02
2023-10-23T20:57:58.144Z,12.02
2023-10-23T21:00:25.438Z,13.35
2023-10-23T21:02:53.053Z,12.20
2023-10-23T21:05:20.409Z,10.82
2023-10-23T21:07:47.243Z,12.35
2023-10-23T21:10:14.553Z,11.40
2023-10-23T21:12:41.922Z,10.38
2023-10-23T21:15:09.499Z,11.73
2023-10-23T21:17:36.833Z,11.60
2023-10-23T21:20:04.602Z,12.57
2023-10-23T21:22:31.929Z,11.75
2023-10-23T21:24:59.224Z,11.65
2023-10-23T21:27:26.602Z,12.57
2023-10-23T21:29:53.568Z,13.20
2023-10-23T21:32:20.489Z,12.15
2023-10-23T21:34:47.768Z,12.18
2023-10-23T21:37:15.116Z,11.48
2023-10-23T21:39:42.498Z,12.73
2023-10-23T21:42:09.776Z,12.75
2023-10-23T21:44:38.272Z,11.32
2023-10-23T21:47:06.095Z,12.88
2023-10-23T21:49:37.092Z,11.57
2023-10-23T21:52:05.619Z,11.87
2023-10-23T21:54:33.333Z,12.05
2023-10-23T21:57:20.783Z,12.00
2023-10-23T21:59:49.265Z,11.05
2023-10-23T22:02:16.814Z,10.52
2023-10-23T22:04:44.090Z,9.50
2023-10-23T22:07:11.350Z,10.07
2023-10-23T22:09:38.838Z,9.73
2023-10-23T22:12:06.727Z,9.35
2023-10-23T22:14:34.201Z,9.82
2023-10-23T22:17:01.635Z,9.50
2023-10-23T22:19:31.597Z,8.80
2023-10-23T22:21:59.135Z,8.95
2023-10-23T22:24:26.462Z,8.88
2023-10-23T22:26:53.927Z,8.93
2023-10-23T22:29:21.210Z,8.83
2023-10-23T22:31:48.524Z,7.72
2023-10-23T22:34:15.902Z,7.75
2023-10-23T22:36:43.158Z,7.68
2023-10-23T22:39:11.633Z,7.65
2023-10-23T22:41:41.045Z,7.47
2023-10-23T22:44:08.741Z,6.05
2023-10-23T22:46:36.061Z,6.40
2023-10-23T22:49:03.344Z,6.55
2023-10-23T22:51:30.659Z,5.70
2023-10-23T22:53:57.736Z,6.50
2023-10-23T22:56:27.960Z,5.45
2023-10-23T22:58:58.344Z,5.80
2023-10-23T23:01:25.591Z,5.45
2023-10-23T23:03:52.951Z,4.90
2023-10-23T23:06:20.422Z,5.07
2023-10-23T23:08:51.389Z,5.05
2023-10-23T23:11:18.720Z,4.40
2023-10-23T23:13:46.393Z,5.13
2023-10-23T23:16:17.362Z,4.22
2023-10-23T23:18:47.951Z,4.60
2023-10-23T23:21:16.904Z,3.90
2023-10-23T23:23:43.855Z,4.00
2023-10-23T23:26:11.102Z,4.20
2023-10-23T23:28:38.409Z,4.45
2023-10-23T23:31:05.341Z,4.10
2023-10-23T23:33:32.987Z,3.70
2023-10-23T23:36:20.277Z,4.40
2023-10-23T23:38:47.526Z,5.00
2023-10-23T23:41:14.808Z,3.97
2023-10-23T23:43:41.727Z,4.80
2023-10-23T23:46:08.768Z,5.05
2023-10-23T23:48:36.076Z,4.80
2023-10-23T23:51:03.554Z,4.93
2023-10-23T23:53:31.138Z,5.50
2023-10-23T23:55:57.996Z,5.20
2023-10-23T23:58:26.578Z,5.18
